createdAt,value
2022-12-04T00:08:59.265Z,10.03
2022-12-04T00:24:00.716Z,10.47
2022-12-04T00:39:02.164Z,10.33
2022-12-04T00:54:03.614Z,9.77
2022-12-04T01:09:05.072Z,10.10
2022-12-04T01:24:06.516Z,9.77
2022-12-04T01:39:07.952Z,9.77
2022-12-04T01:54:09.398Z,9.40
2022-12-04T02:09:10.840Z,10.07
2022-12-04T02:24:12.288Z,10.30
2022-12-04T02:39:13.732Z,9.90
2022-12-04T02:54:15.176Z,10.47
2022-12-04T03:09:16.624Z,10.27
2022-12-04T03:24:18.097Z,9.90
2022-12-04T03:39:19.556Z,10.87
2022-12-04T03:54:21.007Z,10.43
2022-12-04T04:09:22.477Z,10.63
2022-12-04T04:24:23.915Z,10.43
2022-12-04T04:49:32.916Z,10.47
2022-12-04T05:04:34.372Z,10.67
2022-12-04T05:19:35.824Z,10.00
2022-12-04T05:34:37.276Z,11.07
2022-12-04T05:49:38.742Z,10.30
2022-12-04T06:04:40.212Z,10.97
2022-12-04T06:19:41.679Z,10.90
2022-12-04T06:34:43.146Z,10.07
2022-12-04T06:49:44.613Z,9.70
2022-12-04T07:04:46.100Z,9.80
2022-12-04T07:19:47.556Z,10.27
2022-12-04T07:34:49.053Z,10.27
2022-12-04T07:49:50.518Z,10.23
2022-12-04T08:04:52.061Z,9.43
2022-12-04T08:19:53.949Z,9.17
2022-12-04T08:34:56.161Z,9.60
2022-12-04T08:49:57.872Z,9.70
2022-12-04T09:04:59.530Z,9.80
2022-12-04T09:20:01.692Z,9.77
2022-12-04T09:35:03.258Z,8.73
2022-12-04T09:50:04.742Z,8.87
2022-12-04T10:05:06.211Z,8.17
2022-12-04T10:20:07.686Z,7.67
2022-12-04T10:35:09.139Z,7.37
2022-12-04T10:50:10.625Z,6.63
2022-12-04T11:05:12.089Z,6.50
2022-12-04T11:20:13.541Z,6.40
2022-12-04T11:35:14.998Z,6.30
2022-12-04T11:50:16.577Z,6.37
2022-12-04T12:05:18.045Z,6.90
2022-12-04T12:20:19.501Z,6.17
2022-12-04T12:35:20.966Z,6.33
2022-12-04T12:50:22.442Z,6.10
2022-12-04T13:05:23.897Z,5.73
2022-12-04T13:20:25.348Z,5.90
2022-12-04T13:35:26.804Z,5.67
2022-12-04T13:50:28.257Z,5.53
2022-12-04T14:05:29.718Z,5.60
2022-12-04T14:20:31.174Z,6.53
2022-12-04T14:35:32.629Z,6.00
2022-12-04T14:50:34.087Z,6.23
2022-12-04T15:05:35.546Z,7.33
2022-12-04T15:20:39.267Z,7.47
2022-12-04T15:35:40.984Z,7.87
2022-12-04T15:50:42.449Z,7.27
2022-12-04T16:05:43.911Z,7.90
2022-12-04T16:20:45.369Z,7.80
2022-12-04T16:35:46.833Z,8.40
2022-12-04T16:50:48.288Z,8.13
2022-12-04T17:05:49.736Z,8.43
2022-12-04T17:20:51.228Z,8.60
2022-12-04T17:35:52.687Z,8.70
2022-12-04T17:50:54.141Z,9.33
2022-12-04T18:05:55.604Z,10.07
2022-12-04T18:20:57.059Z,10.20
2022-12-04T18:35:58.524Z,8.80
2022-12-04T18:50:59.983Z,9.53
2022-12-04T19:06:01.519Z,9.43
2022-12-04T19:21:02.995Z,8.50
2022-12-04T19:36:04.469Z,9.73
2022-12-04T19:51:05.945Z,9.23
2022-12-04T20:06:07.407Z,9.00
2022-12-04T20:21:08.871Z,9.13
2022-12-04T20:36:10.318Z,8.60
2022-12-04T20:51:11.773Z,8.60
2022-12-04T21:06:13.235Z,8.57
2022-12-04T21:21:14.712Z,8.23
2022-12-04T21:36:16.179Z,8.07
2022-12-04T21:51:40.241Z,8.57
2022-12-04T22:06:39.085Z,8.23
2022-12-04T22:21:40.555Z,7.47
2022-12-04T22:36:42.010Z,8.33
2022-12-04T22:51:43.468Z,8.13
2022-12-04T23:06:44.933Z,8.47
2022-12-04T23:21:47.909Z,9.03
2022-12-04T23:36:51.180Z,8.13
2022-12-04T23:51:52.628Z,7.93
